Time;durP1;ratioP1;P1;durP2;ratioP2;P2;SDS_P1;SDS_P2;PMS_P1;PMS_P2;Temp;Humidity;BMP_temperature;BMP_pressure;BME280_temperature;BME280_humidity;BME280_pressure;Samples;Min_cycle;Max_cycle;Signal;HPM_P1;HPM_P2
2023/07/05 00:00:14;;;;;;;7.22;3.53;;;;;;;;;;5047772;28;20439;-79
2023/07/05 00:02:40;;;;;;;5.03;3.00;;;;;;;;;;5047279;28;20021;-79
2023/07/05 00:05:06;;;;;;;8.57;4.10;;;;;;;;;;5041915;28;20044;-79
2023/07/05 00:07:31;;;;;;;7.40;3.38;;;;;;;;;;5049842;28;20405;-80
2023/07/05 00:09:57;;;;;;;6.60;3.70;;;;;;;;;;5040368;28;20025;-80
2023/07/05 00:12:22;;;;;;;7.68;3.95;;;;;;;;;;5051467;28;20025;-80
2023/07/05 00:14:48;;;;;;;7.50;3.60;;;;;;;;;;5049615;28;20503;-79
2023/07/05 00:17:13;;;;;;;6.13;3.65;;;;;;;;;;5046016;28;20024;-79
2023/07/05 00:19:39;;;;;;;7.00;3.53;;;;;;;;;;5048375;28;20469;-81
2023/07/05 00:22:04;;;;;;;6.68;3.65;;;;;;;;;;5050020;28;20036;-80
2023/07/05 00:24:29;;;;;;;7.57;3.30;;;;;;;;;;5045567;28;20028;-80
2023/07/05 00:26:55;;;;;;;5.75;3.53;;;;;;;;;;5046205;28;20040;-80
2023/07/05 00:29:20;;;;;;;6.47;3.60;;;;;;;;;;5042815;28;20458;-80
2023/07/05 00:31:46;;;;;;;6.30;3.45;;;;;;;;;;5049542;28;20029;-79
2023/07/05 00:34:11;;;;;;;8.75;3.63;;;;;;;;;;5049097;28;20028;-79
2023/07/05 00:36:36;;;;;;;6.05;3.92;;;;;;;;;;5042157;28;20021;-80
2023/07/05 00:39:02;;;;;;;6.25;3.00;;;;;;;;;;5046238;28;20710;-79
2023/07/05 00:41:28;;;;;;;5.60;3.08;;;;;;;;;;5045933;28;20020;-81
2023/07/05 00:43:53;;;;;;;7.07;3.25;;;;;;;;;;5047472;28;20044;-79
2023/07/05 00:46:24;;;;;;;6.22;2.97;;;;;;;;;;5048626;28;20024;-80
2023/07/05 00:48:53;;;;;;;5.45;3.15;;;;;;;;;;5048275;28;20528;-80
2023/07/05 00:51:34;;;;;;;6.07;2.97;;;;;;;;;;5063567;28;20056;-79
2023/07/05 00:54:02;;;;;;;5.95;2.95;;;;;;;;;;5067502;28;20033;-78
2023/07/05 00:56:33;;;;;;;4.93;2.85;;;;;;;;;;5060650;28;20664;-78
2023/07/05 00:59:00;;;;;;;5.13;2.78;;;;;;;;;;5067742;28;20020;-79
2023/07/05 01:01:26;;;;;;;5.07;2.78;;;;;;;;;;5067410;28;20028;-78
2023/07/05 01:03:54;;;;;;;5.25;2.72;;;;;;;;;;5071726;28;20032;-78
2023/07/05 01:06:22;;;;;;;4.05;2.55;;;;;;;;;;5070734;28;20028;-78
2023/07/05 01:08:49;;;;;;;4.15;2.40;;;;;;;;;;5052764;28;20135;-78
2023/07/05 01:11:30;;;;;;;4.28;2.22;;;;;;;;;;5072904;28;20064;-78
2023/07/05 01:14:07;;;;;;;4.32;2.30;;;;;;;;;;5061977;28;20082;-78
2023/07/05 01:16:55;;;;;;;4.10;2.33;;;;;;;;;;5063153;28;20038;-78
2023/07/05 01:19:36;;;;;;;4.65;1.90;;;;;;;;;;5059341;28;20119;-79
2023/07/05 01:22:07;;;;;;;4.55;2.72;;;;;;;;;;5058972;28;20024;-79
2023/07/05 01:24:48;;;;;;;4.68;2.40;;;;;;;;;;5072881;28;20119;-78
2023/07/05 01:27:26;;;;;;;8.52;2.03;;;;;;;;;;5072955;28;20021;-79
2023/07/05 01:30:06;;;;;;;3.95;2.08;;;;;;;;;;5067001;28;20028;-78
2023/07/05 01:32:43;;;;;;;5.13;2.03;;;;;;;;;;5068910;28;20031;-77
2023/07/05 01:35:20;;;;;;;4.55;1.88;;;;;;;;;;5069497;28;20085;-78
2023/07/05 01:37:46;;;;;;;4.55;2.10;;;;;;;;;;5063654;28;20040;-78
2023/07/05 01:40:34;;;;;;;3.20;2.05;;;;;;;;;;5064497;28;20468;-78
2023/07/05 01:43:10;;;;;;;4.80;2.20;;;;;;;;;;5066247;28;20047;-78
2023/07/05 01:46:10;;;;;;;3.42;2.17;;;;;;;;;;5062645;28;20024;-78
2023/07/05 01:48:57;;;;;;;4.47;2.00;;;;;;;;;;5068609;28;20477;-78
2023/07/05 01:51:41;;;;;;;4.57;2.13;;;;;;;;;;5061068;28;20020;-78
2023/07/05 01:54:11;;;;;;;3.25;1.92;;;;;;;;;;5063916;28;20064;-78
2023/07/05 01:56:43;;;;;;;4.40;1.80;;;;;;;;;;5060224;28;20028;-78
2023/07/05 01:59:11;;;;;;;3.63;2.13;;;;;;;;;;5062653;28;20115;-78
2023/07/05 02:01:42;;;;;;;3.50;1.98;;;;;;;;;;5066228;28;20028;-78
2023/07/05 02:04:09;;;;;;;5.70;1.75;;;;;;;;;;5065550;28;20385;-78
2023/07/05 02:06:37;;;;;;;3.88;1.80;;;;;;;;;;5064259;28;20030;-78
2023/07/05 02:09:02;;;;;;;3.17;1.80;;;;;;;;;;5081060;28;20043;-78
2023/07/05 02:11:28;;;;;;;4.82;1.70;;;;;;;;;;5069222;28;20028;-78
2023/07/05 02:13:53;;;;;;;3.65;1.67;;;;;;;;;;5063993;28;20028;-77
2023/07/05 02:16:19;;;;;;;3.90;1.90;;;;;;;;;;5063489;28;20530;-77
2023/07/05 02:18:44;;;;;;;3.05;1.80;;;;;;;;;;5068992;28;20034;-77
2023/07/05 02:21:10;;;;;;;4.00;1.70;;;;;;;;;;5066079;28;20024;-78
2023/07/05 02:23:36;;;;;;;4.28;1.60;;;;;;;;;;5063228;28;20023;-78
2023/07/05 02:26:04;;;;;;;2.85;1.40;;;;;;;;;;5061619;28;20033;-77
2023/07/05 02:28:30;;;;;;;4.18;1.65;;;;;;;;;;5067833;28;20105;-77
2023/07/05 02:30:56;;;;;;;2.80;1.50;;;;;;;;;;5062311;28;20024;-77
2023/07/05 02:33:21;;;;;;;4.45;1.75;;;;;;;;;;5065236;28;20059;-78
2023/07/05 02:35:48;;;;;;;5.53;2.47;;;;;;;;;;5063290;28;20039;-78
2023/07/05 02:38:13;;;;;;;4.53;2.45;;;;;;;;;;5067016;28;20025;-78
2023/07/05 02:40:39;;;;;;;4.45;2.55;;;;;;;;;;5069143;28;20032;-77
2023/07/05 02:43:04;;;;;;;4.75;2.70;;;;;;;;;;5065402;28;20397;-78
2023/07/05 02:45:32;;;;;;;4.25;2.40;;;;;;;;;;5063891;28;20439;-78
2023/07/05 02:47:57;;;;;;;5.13;2.70;;;;;;;;;;5063228;28;20436;-77
2023/07/05 02:50:23;;;;;;;3.60;2.35;;;;;;;;;;5061401;28;20052;-78
2023/07/05 02:52:48;;;;;;;4.60;2.20;;;;;;;;;;5062650;28;20474;-77
2023/07/05 02:55:14;;;;;;;3.55;2.03;;;;;;;;;;5064550;28;20035;-78
2023/07/05 02:57:39;;;;;;;3.60;2.15;;;;;;;;;;5063195;28;20472;-78
2023/07/05 03:00:08;;;;;;;3.30;1.85;;;;;;;;;;5067282;28;20532;-78
2023/07/05 03:02:33;;;;;;;4.13;1.83;;;;;;;;;;5061626;28;20020;-77
2023/07/05 03:05:06;;;;;;;4.55;2.17;;;;;;;;;;5068170;28;20032;-77
2023/07/05 03:07:32;;;;;;;;;;;;;;;;;;5060697;28;20086;-77
2023/07/05 03:09:57;;;;;;;4.20;2.10;;;;;;;;;;5060878;28;19924;-78
2023/07/05 03:12:22;;;;;;;4.13;2.33;;;;;;;;;;5065100;28;20107;-77
2023/07/05 03:14:48;;;;;;;3.75;2.00;;;;;;;;;;5069622;28;20603;-78
2023/07/05 03:17:14;;;;;;;3.75;2.20;;;;;;;;;;5059920;28;20029;-78
2023/07/05 03:19:39;;;;;;;4.75;2.10;;;;;;;;;;5064038;28;20060;-78
2023/07/05 03:22:04;;;;;;;4.82;2.17;;;;;;;;;;5059980;28;20037;-78
2023/07/05 03:24:30;;;;;;;4.82;2.33;;;;;;;;;;5069489;28;20037;-77
2023/07/05 03:26:55;;;;;;;4.43;2.30;;;;;;;;;;5064940;28;20475;-78
2023/07/05 03:29:20;;;;;;;4.05;2.10;;;;;;;;;;5068167;28;20032;-78
2023/07/05 03:31:46;;;;;;;4.07;2.10;;;;;;;;;;5062669;28;20068;-77
2023/07/05 03:34:11;;;;;;;4.07;1.95;;;;;;;;;;5067512;28;20400;-78
2023/07/05 03:36:36;;;;;;;6.88;2.53;;;;;;;;;;5065414;28;20020;-78
2023/07/05 03:39:02;;;;;;;4.50;2.22;;;;;;;;;;5059481;28;20032;-78
2023/07/05 03:41:27;;;;;;;3.83;2.00;;;;;;;;;;5083847;28;20025;-78
2023/07/05 03:43:58;;;;;;;5.47;2.10;;;;;;;;;;5072236;28;20020;-78
2023/07/05 03:46:24;;;;;;;4.57;2.05;;;;;;;;;;5071677;28;20032;-79
2023/07/05 03:48:50;;;;;;;5.32;2.58;;;;;;;;;;5066934;28;20087;-78
2023/07/05 03:51:20;;;;;;;3.88;1.88;;;;;;;;;;5056945;28;20025;-78
2023/07/05 03:53:54;;;;;;;6.05;2.50;;;;;;;;;;5049253;28;20021;-77
2023/07/05 03:56:20;;;;;;;5.88;2.33;;;;;;;;;;5049654;28;20034;-78
2023/07/05 03:58:46;;;;;;;4.43;2.20;;;;;;;;;;5047298;28;20063;-78
2023/07/05 04:01:15;;;;;;;4.28;2.15;;;;;;;;;;5046745;28;20497;-78
2023/07/05 04:03:45;;;;;;;4.53;2.38;;;;;;;;;;5049427;28;20016;-78
2023/07/05 04:06:11;;;;;;;6.50;2.35;;;;;;;;;;5074389;28;20138;-78
2023/07/05 04:08:37;;;;;;;6.03;2.33;;;;;;;;;;5047663;28;20039;-78
2023/07/05 04:11:03;;;;;;;5.97;2.35;;;;;;;;;;5051109;28;20083;-78
2023/07/05 04:13:29;;;;;;;6.40;2.60;;;;;;;;;;5049124;28;20029;-77
2023/07/05 04:16:05;;;;;;;5.07;2.58;;;;;;;;;;5052130;28;20451;-78
2023/07/05 04:18:32;;;;;;;4.57;2.40;;;;;;;;;;5047541;28;20484;-78
2023/07/05 04:20:58;;;;;;;5.70;2.83;;;;;;;;;;5043679;28;20555;-78
2023/07/05 04:23:24;;;;;;;5.15;2.72;;;;;;;;;;5051347;28;20385;-78
2023/07/05 04:25:57;;;;;;;5.47;2.78;;;;;;;;;;5050543;28;20033;-78
2023/07/05 04:28:22;;;;;;;5.57;2.95;;;;;;;;;;5049374;28;20039;-78
2023/07/05 04:30:48;;;;;;;6.32;2.65;;;;;;;;;;5049233;28;20401;-77
2023/07/05 04:33:13;;;;;;;5.10;2.80;;;;;;;;;;5046905;28;20025;-78
2023/07/05 04:35:45;;;;;;;4.47;2.47;;;;;;;;;;5049651;28;20032;-78
2023/07/05 04:38:11;;;;;;;5.20;2.58;;;;;;;;;;5051957;28;20045;-77
2023/07/05 04:40:36;;;;;;;4.70;2.63;;;;;;;;;;5049005;28;20033;-77
2023/07/05 04:43:01;;;;;;;5.85;2.55;;;;;;;;;;5052231;28;20367;-77
2023/07/05 04:45:27;;;;;;;5.10;3.17;;;;;;;;;;5051080;28;20071;-77
2023/07/05 04:47:52;;;;;;;5.72;2.58;;;;;;;;;;5045951;28;20029;-77
2023/07/05 04:50:17;;;;;;;6.72;2.80;;;;;;;;;;5049090;28;20040;-77
2023/07/05 04:52:43;;;;;;;8.32;2.92;;;;;;;;;;5046944;28;20121;-77
2023/07/05 04:55:08;;;;;;;7.10;2.88;;;;;;;;;;5067842;28;20024;-77
2023/07/05 04:57:34;;;;;;;5.25;2.80;;;;;;;;;;5068819;28;20103;-78
2023/07/05 05:00:05;;;;;;;5.95;2.70;;;;;;;;;;5069058;28;20028;-77
2023/07/05 05:02:31;;;;;;;4.95;2.50;;;;;;;;;;5066054;28;20020;-78
2023/07/05 05:04:56;;;;;;;5.13;2.42;;;;;;;;;;5066542;28;20031;-78
2023/07/05 05:07:22;;;;;;;5.63;2.90;;;;;;;;;;5066714;28;20036;-77
2023/07/05 05:09:47;;;;;;;4.68;2.50;;;;;;;;;;5050754;28;20036;-77
2023/07/05 05:12:12;;;;;;;5.40;2.67;;;;;;;;;;5070031;28;20020;-77
2023/07/05 05:14:38;;;;;;;5.68;3.00;;;;;;;;;;5061732;28;20039;-78
2023/07/05 05:17:03;;;;;;;4.97;2.40;;;;;;;;;;5067097;28;20361;-78
2023/07/05 05:19:29;;;;;;;8.32;3.60;;;;;;;;;;5064962;28;20056;-77
2023/07/05 05:21:54;;;;;;;5.97;2.90;;;;;;;;;;5066617;28;20028;-78
2023/07/05 05:24:20;;;;;;;4.07;2.38;;;;;;;;;;5062878;28;20465;-77
2023/07/05 05:26:46;;;;;;;5.68;2.67;;;;;;;;;;5066493;28;20077;-78
2023/07/05 05:29:12;;;;;;;5.07;2.60;;;;;;;;;;5057058;28;20135;-78
2023/07/05 05:31:38;;;;;;;4.68;2.75;;;;;;;;;;5054437;28;20035;-77
2023/07/05 05:34:03;;;;;;;5.68;2.45;;;;;;;;;;5063468;28;20550;-77
2023/07/05 05:36:29;;;;;;;5.32;2.70;;;;;;;;;;5059128;28;20049;-77
2023/07/05 05:38:54;;;;;;;5.68;2.40;;;;;;;;;;5067347;28;20062;-77
2023/07/05 05:41:19;;;;;;;4.78;2.63;;;;;;;;;;5063261;28;20031;-77
2023/07/05 05:43:45;;;;;;;6.63;3.33;;;;;;;;;;5072476;28;20377;-77
2023/07/05 05:46:11;;;;;;;4.38;2.40;;;;;;;;;;5071490;28;20070;-77
2023/07/05 05:48:36;;;;;;;6.38;2.50;;;;;;;;;;5069680;28;20060;-77
2023/07/05 05:51:02;;;;;;;6.32;2.88;;;;;;;;;;5064061;28;20029;-78
2023/07/05 05:53:27;;;;;;;4.80;2.30;;;;;;;;;;5059996;28;20036;-77
2023/07/05 05:55:56;;;;;;;5.15;2.50;;;;;;;;;;5064530;28;20036;-77
2023/07/05 05:58:21;;;;;;;4.60;2.40;;;;;;;;;;5066736;28;20024;-77
2023/07/05 06:00:47;;;;;;;5.28;2.40;;;;;;;;;;5067949;28;20127;-77
2023/07/05 06:03:12;;;;;;;8.20;2.75;;;;;;;;;;5066190;28;20064;-76
2023/07/05 06:05:38;;;;;;;4.50;2.20;;;;;;;;;;5069101;28;20127;-77
2023/07/05 06:08:03;;;;;;;4.80;2.47;;;;;;;;;;5067326;28;20427;-77
2023/07/05 06:10:29;;;;;;;6.13;2.55;;;;;;;;;;5048433;28;20058;-78
2023/07/05 06:12:54;;;;;;;5.43;2.83;;;;;;;;;;5063451;28;20531;-78
2023/07/05 06:15:19;;;;;;;4.20;2.40;;;;;;;;;;5059900;28;20491;-77
2023/07/05 06:17:45;;;;;;;4.85;2.47;;;;;;;;;;5064683;28;20479;-77
2023/07/05 06:20:11;;;;;;;5.13;2.60;;;;;;;;;;5071421;28;20036;-77
2023/07/05 06:22:37;;;;;;;4.07;2.28;;;;;;;;;;5064587;28;20045;-77
2023/07/05 06:25:03;;;;;;;5.45;2.40;;;;;;;;;;5066792;28;20518;-77
2023/07/05 06:27:28;;;;;;;4.72;2.90;;;;;;;;;;5067424;28;20104;-76
2023/07/05 06:29:54;;;;;;;4.65;2.47;;;;;;;;;;5067592;28;20073;-76
2023/07/05 06:32:19;;;;;;;4.97;2.75;;;;;;;;;;5066568;28;20036;-77
2023/07/05 06:34:45;;;;;;;3.90;2.33;;;;;;;;;;5067811;28;20043;-77
2023/07/05 06:37:11;;;;;;;4.10;2.20;;;;;;;;;;5067981;28;20041;-77
2023/07/05 06:39:37;;;;;;;6.13;2.60;;;;;;;;;;5061476;28;20119;-77
2023/07/05 06:42:03;;;;;;;7.38;2.20;;;;;;;;;;5063314;28;20028;-76
2023/07/05 06:44:28;;;;;;;4.00;2.08;;;;;;;;;;5065351;28;20021;-76
2023/07/05 06:46:53;;;;;;;4.95;2.25;;;;;;;;;;5062356;28;20035;-77
2023/07/05 06:49:19;;;;;;;3.67;2.05;;;;;;;;;;5064381;28;20492;-78
2023/07/05 06:51:44;;;;;;;4.00;2.20;;;;;;;;;;5045691;28;20026;-77
2023/07/05 06:54:10;;;;;;;3.50;2.10;;;;;;;;;;5038498;28;20114;-77
2023/07/05 06:56:35;;;;;;;5.07;2.47;;;;;;;;;;5046277;28;20051;-77
2023/07/05 06:59:01;;;;;;;5.75;2.40;;;;;;;;;;5047629;28;20016;-77
2023/07/05 07:01:26;;;;;;;7.75;2.53;;;;;;;;;;5042708;28;20020;-79
2023/07/05 07:03:51;;;;;;;8.52;2.47;;;;;;;;;;5039022;28;20393;-79
2023/07/05 07:06:17;;;;;;;5.15;2.42;;;;;;;;;;5051991;28;20060;-79
2023/07/05 07:08:42;;;;;;;7.55;2.47;;;;;;;;;;5045903;28;20021;-78
2023/07/05 07:11:10;;;;;;;3.85;1.83;;;;;;;;;;5033437;28;20392;-78
2023/07/05 07:13:36;;;;;;;2.97;1.83;;;;;;;;;;5040830;28;21922;-79
2023/07/05 07:16:13;;;;;;;3.75;2.30;;;;;;;;;;5045500;28;20033;-78
2023/07/05 07:18:38;;;;;;;4.45;1.83;;;;;;;;;;5042298;28;20045;-79
2023/07/05 07:21:11;;;;;;;3.15;1.27;;;;;;;;;;5049357;28;20055;-81
2023/07/05 07:23:37;;;;;;;2.53;1.30;;;;;;;;;;5024471;28;20036;-81
2023/07/05 07:26:13;;;;;;;5.65;1.65;;;;;;;;;;5041828;28;20104;-81
2023/07/05 07:28:39;;;;;;;5.28;1.90;;;;;;;;;;5048002;28;20025;-81
2023/07/05 07:31:16;;;;;;;4.20;1.90;;;;;;;;;;5044834;28;20068;-81
2023/07/05 07:33:43;;;;;;;7.30;1.90;;;;;;;;;;5048456;28;20017;-81
2023/07/05 07:36:16;;;;;;;4.13;1.65;;;;;;;;;;5050033;28;20455;-81
2023/07/05 07:38:42;;;;;;;3.80;2.10;;;;;;;;;;5046996;28;20013;-81
2023/07/05 07:41:31;;;;;;;5.57;2.08;;;;;;;;;;5045546;28;20049;-81
2023/07/05 07:44:03;;;;;;;4.55;2.15;;;;;;;;;;5046151;28;20041;-81
2023/07/05 07:46:29;;;;;;;3.40;2.08;;;;;;;;;;5045852;28;20025;-81
2023/07/05 07:48:56;;;;;;;4.75;1.77;;;;;;;;;;5044320;28;20409;-82
2023/07/05 07:51:24;;;;;;;4.03;1.75;;;;;;;;;;5077959;28;20032;-81
2023/07/05 07:53:50;;;;;;;3.30;1.60;;;;;;;;;;5085301;28;20472;-81
2023/07/05 07:56:18;;;;;;;4.40;2.10;;;;;;;;;;5069338;28;20032;-82
2023/07/05 07:58:47;;;;;;;6.85;2.00;;;;;;;;;;5064333;28;20032;-79
2023/07/05 08:01:16;;;;;;;5.18;2.30;;;;;;;;;;5069806;28;20024;-80
2023/07/05 08:03:42;;;;;;;5.15;2.60;;;;;;;;;;5081545;28;20027;-80
2023/07/05 08:06:07;;;;;;;4.25;2.47;;;;;;;;;;5069544;28;20039;-83
2023/07/05 08:08:34;;;;;;;4.40;2.50;;;;;;;;;;5066281;28;20426;-81
2023/07/05 08:11:02;;;;;;;4.63;2.70;;;;;;;;;;5054393;28;20037;-81
2023/07/05 08:13:28;;;;;;;5.35;2.88;;;;;;;;;;5082023;28;20658;-81
2023/07/05 08:15:53;;;;;;;5.28;2.88;;;;;;;;;;5078641;28;20020;-81
2023/07/05 08:18:18;;;;;;;5.45;2.90;;;;;;;;;;5080469;28;20032;-80
2023/07/05 08:20:44;;;;;;;5.53;3.00;;;;;;;;;;5078609;28;20520;-80
2023/07/05 08:23:09;;;;;;;5.75;3.05;;;;;;;;;;5076709;28;20028;-81
2023/07/05 08:25:36;;;;;;;4.55;2.65;;;;;;;;;;5060394;28;20419;-80
2023/07/05 08:28:01;;;;;;;4.40;3.05;;;;;;;;;;5081627;28;20024;-81
2023/07/05 08:30:27;;;;;;;5.43;3.15;;;;;;;;;;5082220;28;20020;-81
2023/07/05 08:32:53;;;;;;;6.20;3.55;;;;;;;;;;5082347;28;20028;-80
2023/07/05 08:35:18;;;;;;;5.10;3.38;;;;;;;;;;5079246;28;20015;-81
2023/07/05 08:37:48;;;;;;;6.13;3.30;;;;;;;;;;5041987;28;20125;-81
2023/07/05 08:40:15;;;;;;;5.20;3.20;;;;;;;;;;5082565;28;20629;-81
2023/07/05 08:42:55;;;;;;;7.00;3.33;;;;;;;;;;5085873;28;20095;-81
2023/07/05 08:45:31;;;;;;;7.38;3.40;;;;;;;;;;5080623;28;20028;-81
2023/07/05 08:48:00;;;;;;;8.70;3.75;;;;;;;;;;5080200;28;20147;-80
2023/07/05 08:50:31;;;;;;;6.15;3.75;;;;;;;;;;5049554;28;20033;-81
2023/07/05 08:53:09;;;;;;;7.93;4.00;;;;;;;;;;5045277;28;20039;-80
2023/07/05 08:55:52;;;;;;;4.75;3.42;;;;;;;;;;5036108;28;20044;-80
2023/07/05 08:58:39;;;;;;;6.65;3.67;;;;;;;;;;5035391;28;20056;-81
2023/07/05 09:01:11;;;;;;;6.30;3.30;;;;;;;;;;5041965;28;20033;-80
2023/07/05 09:03:37;;;;;;;7.35;3.42;;;;;;;;;;5043266;28;20075;-80
2023/07/05 09:06:21;;;;;;;8.07;3.75;;;;;;;;;;5040500;28;20068;-81
2023/07/05 09:09:10;;;;;;;7.97;3.45;;;;;;;;;;5046150;28;20029;-81
2023/07/05 09:11:42;;;;;;;5.63;3.15;;;;;;;;;;5041584;28;20033;-80
2023/07/05 09:14:31;;;;;;;7.25;3.70;;;;;;;;;;5036019;28;20025;-80
2023/07/05 09:17:03;;;;;;;9.35;3.55;;;;;;;;;;5041587;28;20120;-80
2023/07/05 09:20:05;;;;;;;7.38;3.17;;;;;;;;;;5042357;28;20060;-81
2023/07/05 09:22:36;;;;;;;6.82;4.10;;;;;;;;;;5037744;28;20020;-81
2023/07/05 09:25:03;;;;;;;8.02;3.15;;;;;;;;;;5041053;28;20451;-80
2023/07/05 09:27:40;;;;;;;6.93;2.97;;;;;;;;;;5053943;28;20032;-80
2023/07/05 09:30:14;;;;;;;9.57;2.80;;;;;;;;;;5047952;28;20037;-79
2023/07/05 09:32:43;;;;;;;6.68;2.97;;;;;;;;;;5049371;28;20059;-81
2023/07/05 09:35:29;;;;;;;6.65;3.00;;;;;;;;;;5043632;28;20552;-77
2023/07/05 09:38:00;;;;;;;7.22;3.67;;;;;;;;;;5045529;28;20120;-81
2023/07/05 09:40:30;;;;;;;7.13;3.17;;;;;;;;;;5046489;28;20040;-78
2023/07/05 09:42:55;;;;;;;7.75;2.95;;;;;;;;;;5037066;28;21331;-77
2023/07/05 09:45:21;;;;;;;7.65;3.17;;;;;;;;;;5042977;28;20040;-77
2023/07/05 09:47:52;;;;;;;6.50;3.33;;;;;;;;;;5042738;28;20429;-78
2023/07/05 09:50:20;;;;;;;5.78;3.05;;;;;;;;;;5037103;28;20029;-81
2023/07/05 09:52:49;;;;;;;5.95;2.70;;;;;;;;;;5048369;28;20033;-78
2023/07/05 09:55:17;;;;;;;8.80;3.13;;;;;;;;;;5047081;28;20111;-78
2023/07/05 09:57:42;;;;;;;5.63;2.40;;;;;;;;;;5036657;28;20119;-78
2023/07/05 10:00:35;;;;;;;6.15;2.40;;;;;;;;;;5040770;28;20116;-82
2023/07/05 10:03:14;;;;;;;3.63;1.67;;;;;;;;;;5044786;28;20029;-77
2023/07/05 10:05:51;;;;;;;5.80;2.10;;;;;;;;;;5044052;28;20508;-78
2023/07/05 10:08:16;;;;;;;5.55;2.17;;;;;;;;;;5040082;28;20056;-76
2023/07/05 10:10:42;;;;;;;5.25;2.72;;;;;;;;;;5045154;28;20052;-78
2023/07/05 10:13:15;;;;;;;6.10;1.90;;;;;;;;;;5044202;28;20034;-76
2023/07/05 10:15:42;;;;;;;;;;;;;;;;;;5046927;28;20028;-76
2023/07/05 10:18:33;;;;;;;8.10;1.80;;;;;;;;;;5043753;28;19962;-77
2023/07/05 10:21:05;;;;;;;3.70;1.65;;;;;;;;;;5040986;28;20032;-75
2023/07/05 10:23:32;;;;;;;4.10;1.50;;;;;;;;;;5044550;28;20441;-77
2023/07/05 10:26:03;;;;;;;3.67;1.58;;;;;;;;;;5038072;28;20032;-79
2023/07/05 10:28:30;;;;;;;3.63;1.48;;;;;;;;;;5036125;28;20046;-80
2023/07/05 10:31:01;;;;;;;5.28;1.52;;;;;;;;;;5044666;28;20094;-78
2023/07/05 10:33:37;;;;;;;3.83;1.38;;;;;;;;;;5036989;28;20043;-75
2023/07/05 10:36:09;;;;;;;3.70;1.38;;;;;;;;;;5042463;28;20025;-77
2023/07/05 10:38:48;;;;;;;4.82;1.50;;;;;;;;;;5040118;28;20033;-76
2023/07/05 10:41:19;;;;;;;3.45;1.40;;;;;;;;;;5035721;28;20025;-77
2023/07/05 10:43:57;;;;;;;4.43;1.33;;;;;;;;;;5055582;28;20359;-76
2023/07/05 10:46:25;;;;;;;6.38;1.30;;;;;;;;;;5044751;28;20083;-76
2023/07/05 10:48:52;;;;;;;5.00;1.50;;;;;;;;;;5041700;28;20493;-75
2023/07/05 10:51:21;;;;;;;3.05;1.30;;;;;;;;;;5042729;28;20025;-77
2023/07/05 10:53:55;;;;;;;7.28;1.40;;;;;;;;;;5054805;28;20026;-80
2023/07/05 10:56:25;;;;;;;3.17;1.30;;;;;;;;;;5057974;28;20444;-77
2023/07/05 10:59:01;;;;;;;8.00;1.63;;;;;;;;;;5040110;28;20091;-76
2023/07/05 11:01:40;;;;;;;3.05;1.40;;;;;;;;;;5044754;28;20527;-76
2023/07/05 11:04:18;;;;;;;6.38;1.38;;;;;;;;;;5042007;28;20029;-75
2023/07/05 11:06:46;;;;;;;2.78;1.17;;;;;;;;;;5052021;28;20037;-76
2023/07/05 11:09:12;;;;;;;3.72;1.40;;;;;;;;;;5037574;28;20545;-76
2023/07/05 11:11:59;;;;;;;3.75;1.20;;;;;;;;;;5039450;28;20060;-75
2023/07/05 11:14:28;;;;;;;2.95;1.50;;;;;;;;;;5040551;28;20464;-75
2023/07/05 11:16:55;;;;;;;3.75;1.25;;;;;;;;;;5038301;28;20043;-75
2023/07/05 11:19:26;;;;;;;3.00;1.30;;;;;;;;;;5037111;28;20026;-76
2023/07/05 11:21:52;;;;;;;3.45;1.30;;;;;;;;;;5039112;28;20033;-78
2023/07/05 11:24:30;;;;;;;3.80;1.38;;;;;;;;;;5035369;28;20767;-76
2023/07/05 11:26:56;;;;;;;6.60;1.73;;;;;;;;;;5041472;28;20036;-74
2023/07/05 11:29:25;;;;;;;4.07;1.48;;;;;;;;;;5038708;28;20029;-77
2023/07/05 11:31:53;;;;;;;5.25;1.65;;;;;;;;;;5042868;28;20520;-84
2023/07/05 11:34:22;;;;;;;3.03;1.63;;;;;;;;;;5041162;28;20013;-82
2023/07/05 11:36:49;;;;;;;5.30;1.50;;;;;;;;;;5039405;28;20099;-85
2023/07/05 11:39:34;;;;;;;5.93;1.67;;;;;;;;;;5046502;28;20432;-80
2023/07/05 11:42:20;;;;;;;3.70;1.50;;;;;;;;;;5043719;28;20033;-88
2023/07/05 11:44:55;;;;;;;5.20;1.50;;;;;;;;;;5031357;28;20044;-83
2023/07/05 11:47:21;;;;;;;4.43;1.40;;;;;;;;;;5040119;28;20513;-84
2023/07/05 11:50:07;;;;;;;3.97;1.70;;;;;;;;;;5042576;28;20170;-83
2023/07/05 11:52:45;;;;;;;3.80;1.30;;;;;;;;;;5071450;28;20063;-87
2023/07/05 11:55:24;;;;;;;3.75;1.42;;;;;;;;;;5079705;28;20384;-88
2023/07/05 11:58:11;;;;;;;3.20;1.40;;;;;;;;;;5060605;28;20024;-79
2023/07/05 12:00:51;;;;;;;4.82;1.50;;;;;;;;;;5088047;28;20047;-85
2023/07/05 12:03:23;;;;;;;4.53;1.50;;;;;;;;;;5066865;28;20231;-80
2023/07/05 12:06:02;;;;;;;2.67;1.50;;;;;;;;;;5069011;28;20036;-87
2023/07/05 12:08:41;;;;;;;7.85;1.85;;;;;;;;;;5066407;28;20081;-85
2023/07/05 12:11:08;;;;;;;3.60;1.20;;;;;;;;;;5083629;28;20142;-80
2023/07/05 12:13:35;;;;;;;3.28;1.30;;;;;;;;;;5071173;28;20395;-86
2023/07/05 12:16:03;;;;;;;4.28;1.63;;;;;;;;;;5087756;28;20028;-86
2023/07/05 12:18:30;;;;;;;5.25;1.42;;;;;;;;;;5088370;28;20020;-84
2023/07/05 12:20:58;;;;;;;3.88;1.70;;;;;;;;;;5085719;28;20047;-82
2023/07/05 12:23:28;;;;;;;3.92;1.25;;;;;;;;;;5074843;28;20032;-90
2023/07/05 12:25:55;;;;;;;9.07;1.70;;;;;;;;;;5084057;28;20529;-88
2023/07/05 12:28:24;;;;;;;4.57;1.60;;;;;;;;;;5084600;28;20063;-87
2023/07/05 12:30:58;;;;;;;5.40;1.65;;;;;;;;;;5066425;28;20054;-87
2023/07/05 12:33:27;;;;;;;3.92;1.45;;;;;;;;;;5068382;28;20504;-87
2023/07/05 12:36:18;;;;;;;3.53;1.30;;;;;;;;;;5088583;28;20465;-84
2023/07/05 12:38:46;;;;;;;4.35;1.50;;;;;;;;;;5069496;28;20069;-84
2023/07/05 12:41:20;;;;;;;4.40;1.42;;;;;;;;;;5065849;28;20499;-84
2023/07/05 12:43:48;;;;;;;5.28;1.40;;;;;;;;;;5082126;28;20525;-87
2023/07/05 12:46:20;;;;;;;2.40;1.25;;;;;;;;;;5085180;28;20026;-82
2023/07/05 12:48:47;;;;;;;5.22;1.58;;;;;;;;;;5081712;28;20031;-81
2023/07/05 12:51:32;;;;;;;2.72;1.40;;;;;;;;;;5054804;28;20095;-86
2023/07/05 12:53:59;;;;;;;5.10;1.60;;;;;;;;;;5083455;28;20434;-78
2023/07/05 12:56:36;;;;;;;3.17;1.55;;;;;;;;;;5067493;28;20070;-84
2023/07/05 12:59:06;;;;;;;4.25;1.48;;;;;;;;;;5083097;28;20132;-87
2023/07/05 13:01:35;;;;;;;4.70;1.63;;;;;;;;;;5087252;28;20108;-87
2023/07/05 13:04:07;;;;;;;3.15;1.40;;;;;;;;;;5085529;28;20024;-87
2023/07/05 13:06:34;;;;;;;3.70;1.40;;;;;;;;;;5084215;28;20028;-87
2023/07/05 13:08:59;;;;;;;3.60;1.52;;;;;;;;;;5089768;28;20532;-78
2023/07/05 13:11:26;;;;;;;3.40;1.50;;;;;;;;;;5086624;28;20032;-87
2023/07/05 13:14:00;;;;;;;3.45;1.40;;;;;;;;;;5059680;28;20556;-81
2023/07/05 13:16:32;;;;;;;4.68;1.50;;;;;;;;;;5087287;28;20039;-86
2023/07/05 13:19:05;;;;;;;3.85;1.45;;;;;;;;;;5081035;28;20059;-88
2023/07/05 13:21:45;;;;;;;5.75;1.52;;;;;;;;;;5078052;28;20036;-90
2023/07/05 13:24:26;;;;;;;3.55;1.70;;;;;;;;;;5074029;28;20035;-82
2023/07/05 13:26:51;;;;;;;7.28;1.58;;;;;;;;;;5080130;28;20506;-86
2023/07/05 13:29:23;;;;;;;2.67;1.35;;;;;;;;;;5089170;28;20038;-86
2023/07/05 13:31:49;;;;;;;3.45;1.48;;;;;;;;;;5089391;28;20031;-90
2023/07/05 13:34:16;;;;;;;4.28;1.48;;;;;;;;;;5066187;28;20520;-82
2023/07/05 13:36:42;;;;;;;3.28;1.50;;;;;;;;;;5071518;28;20040;-84
2023/07/05 13:39:10;;;;;;;3.97;1.60;;;;;;;;;;5068600;28;20028;-85
2023/07/05 13:41:36;;;;;;;4.50;1.60;;;;;;;;;;5096365;28;20053;-88
2023/07/05 13:44:02;;;;;;;4.53;1.67;;;;;;;;;;5072759;28;20032;-86
2023/07/05 13:46:27;;;;;;;5.13;1.33;;;;;;;;;;5067303;28;20034;-87
2023/07/05 13:48:53;;;;;;;3.50;1.55;;;;;;;;;;5083795;28;20482;-88
2023/07/05 13:51:28;;;;;;;6.50;1.65;;;;;;;;;;5090076;28;20075;-84
2023/07/05 13:53:55;;;;;;;3.97;1.40;;;;;;;;;;5088450;28;20115;-80
2023/07/05 13:56:21;;;;;;;8.02;1.95;;;;;;;;;;5070099;28;20088;-85
2023/07/05 13:58:47;;;;;;;3.67;1.50;;;;;;;;;;5072819;28;20473;-90
2023/07/05 14:01:16;;;;;;;4.63;1.63;;;;;;;;;;5082970;28;20103;-85
2023/07/05 14:03:43;;;;;;;5.53;1.90;;;;;;;;;;5066019;28;20025;-80
2023/07/05 14:06:19;;;;;;;5.20;1.35;;;;;;;;;;5068713;28;20024;-89
2023/07/05 14:08:45;;;;;;;5.68;1.48;;;;;;;;;;5067126;28;20055;-87
2023/07/05 14:11:49;;;;;;;3.70;1.40;;;;;;;;;;5065057;28;20032;-86
2023/07/05 14:14:15;;;;;;;;;;;;;;;;;;5079860;28;20504;-87
2023/07/05 14:16:40;;;;;;;3.67;1.40;;;;;;;;;;5068367;28;19919;-85
2023/07/05 14:19:06;;;;;;;5.40;1.58;;;;;;;;;;5088407;28;20341;-84
2023/07/05 14:21:33;;;;;;;3.65;1.60;;;;;;;;;;5068415;28;20024;-90
2023/07/05 14:24:05;;;;;;;4.03;1.60;;;;;;;;;;5069115;28;20029;-87
2023/07/05 14:26:36;;;;;;;3.42;1.40;;;;;;;;;;5063698;28;20442;-82
2023/07/05 14:29:02;;;;;;;3.13;1.50;;;;;;;;;;5064831;28;20115;-80
2023/07/05 14:31:27;;;;;;;3.85;1.80;;;;;;;;;;5073754;28;20615;-83
2023/07/05 14:33:55;;;;;;;3.08;1.70;;;;;;;;;;5069112;28;20188;-83
2023/07/05 14:36:21;;;;;;;3.08;1.40;;;;;;;;;;5068658;28;20028;-81
2023/07/05 14:38:46;;;;;;;2.50;1.38;;;;;;;;;;5088705;28;20036;-81
2023/07/05 14:41:16;;;;;;;4.32;1.90;;;;;;;;;;5084496;28;20039;-84
2023/07/05 14:43:42;;;;;;;3.47;1.40;;;;;;;;;;5073623;28;20463;-85
2023/07/05 14:46:10;;;;;;;2.30;1.27;;;;;;;;;;5076363;28;20020;-82
2023/07/05 14:48:35;;;;;;;3.65;1.50;;;;;;;;;;5072683;28;20031;-83
2023/07/05 14:51:01;;;;;;;2.97;1.48;;;;;;;;;;5090530;28;20130;-83
2023/07/05 14:53:28;;;;;;;2.75;1.33;;;;;;;;;;5092235;28;20046;-85
2023/07/05 14:55:55;;;;;;;3.58;1.42;;;;;;;;;;5073944;28;20052;-81